sensor_id;sensor_type;location;lat;lon;timestamp;pressure;altitude;pressure_sealevel;temperature;humidity
45941;BME280;31858;46.008;8.978;2022-10-03T00:00:07;94682.97;;;15.80;83.41
45941;BME280;31858;46.008;8.978;2022-10-03T00:10:19;94689.06;;;15.84;83.19
45941;BME280;31858;46.008;8.978;2022-10-03T00:20:47;94692.91;;;15.83;86.31
45941;BME280;31858;46.008;8.978;2022-10-03T00:31:06;94701.41;;;15.78;87.90
45941;BME280;31858;46.008;8.978;2022-10-03T00:51:44;94691.66;;;15.57;89.14
45941;BME280;31858;46.008;8.978;2022-10-03T01:01:52;94692.25;;;15.72;83.53
45941;BME280;31858;46.008;8.978;2022-10-03T01:12:11;94696.88;;;15.71;87.58
45941;BME280;31858;46.008;8.978;2022-10-03T01:22:39;94700.03;;;15.62;90.92
45941;BME280;31858;46.008;8.978;2022-10-03T01:32:49;94710.06;;;15.58;92.09
45941;BME280;31858;46.008;8.978;2022-10-03T01:43:03;94708.34;;;15.34;94.27
45941;BME280;31858;46.008;8.978;2022-10-03T01:53:13;94714.88;;;15.33;93.74
45941;BME280;31858;46.008;8.978;2022-10-03T02:03:21;94721.81;;;15.27;91.49
45941;BME280;31858;46.008;8.978;2022-10-03T02:13:27;94731.13;;;15.15;93.15
45941;BME280;31858;46.008;8.978;2022-10-03T02:23:38;94738.03;;;15.13;93.47
45941;BME280;31858;46.008;8.978;2022-10-03T02:34:01;94737.66;;;15.14;92.36
45941;BME280;31858;46.008;8.978;2022-10-03T02:44:20;94744.09;;;15.24;91.23
45941;BME280;31858;46.008;8.978;2022-10-03T03:26:47;94767.59;;;15.06;96.36
45941;BME280;31858;46.008;8.978;2022-10-03T03:36:59;94782.56;;;15.07;95.45
45941;BME280;31858;46.008;8.978;2022-10-03T03:47:14;94776.41;;;15.10;93.76
45941;BME280;31858;46.008;8.978;2022-10-03T04:08:02;94787.47;;;15.15;92.41
45941;BME280;31858;46.008;8.978;2022-10-03T04:18:22;94780.56;;;15.18;92.76
45941;BME280;31858;46.008;8.978;2022-10-03T04:29:31;94774.38;;;15.24;91.01
45941;BME280;31858;46.008;8.978;2022-10-03T04:39:49;94780.59;;;15.14;92.92
45941;BME280;31858;46.008;8.978;2022-10-03T04:49:58;94788.63;;;15.18;92.91
45941;BME280;31858;46.008;8.978;2022-10-03T05:00:13;94778.22;;;15.23;86.46
45941;BME280;31858;46.008;8.978;2022-10-03T05:10:33;94784.03;;;15.15;91.96
45941;BME280;31858;46.008;8.978;2022-10-03T05:20:46;94788.72;;;15.04;94.13
45941;BME280;31858;46.008;8.978;2022-10-03T05:30:57;94800.63;;;14.99;96.83
45941;BME280;31858;46.008;8.978;2022-10-03T05:41:08;94812.78;;;15.14;88.65
45941;BME280;31858;46.008;8.978;2022-10-03T06:02:11;94822.84;;;14.99;98.76
45941;BME280;31858;46.008;8.978;2022-10-03T06:12:26;94828.97;;;15.04;98.68
45941;BME280;31858;46.008;8.978;2022-10-03T06:23:00;94829.72;;;15.04;98.02
45941;BME280;31858;46.008;8.978;2022-10-03T06:33:46;94836.53;;;15.19;94.54
45941;BME280;31858;46.008;8.978;2022-10-03T06:44:10;94852.22;;;15.28;91.09
45941;BME280;31858;46.008;8.978;2022-10-03T07:15:56;94842.06;;;16.02;80.73
45941;BME280;31858;46.008;8.978;2022-10-03T07:37:03;94873.47;;;16.08;80.20
45941;BME280;31858;46.008;8.978;2022-10-03T08:09:06;94889.06;;;16.27;82.31
45941;BME280;31858;46.008;8.978;2022-10-03T08:19:21;94901.25;;;15.94;88.27
45941;BME280;31858;46.008;8.978;2022-10-03T08:29:43;94906.56;;;15.46;100.00
45941;BME280;31858;46.008;8.978;2022-10-03T08:40:02;94912.25;;;15.55;100.00
45941;BME280;31858;46.008;8.978;2022-10-03T08:50:34;94911.84;;;15.60;100.00
45941;BME280;31858;46.008;8.978;2022-10-03T09:00:55;94906.84;;;15.62;100.00
45941;BME280;31858;46.008;8.978;2022-10-03T09:11:34;94902.94;;;15.71;100.00
45941;BME280;31858;46.008;8.978;2022-10-03T09:32:43;94899.63;;;16.45;95.82
45941;BME280;31858;46.008;8.978;2022-10-03T09:43:06;94894.22;;;16.86;80.06
45941;BME280;31858;46.008;8.978;2022-10-03T10:04:29;94885.88;;;17.92;77.31
45941;BME280;31858;46.008;8.978;2022-10-03T10:14:48;94866.06;;;18.45;70.79
45941;BME280;31858;46.008;8.978;2022-10-03T10:36:09;94850.66;;;18.85;54.24
45941;BME280;31858;46.008;8.978;2022-10-03T10:46:39;94844.03;;;18.70;76.54
45941;BME280;31858;46.008;8.978;2022-10-03T10:57:20;94827.50;;;18.68;98.90
45941;BME280;31858;46.008;8.978;2022-10-03T11:08:06;94825.63;;;18.65;95.39
45941;BME280;31858;46.008;8.978;2022-10-03T11:39:33;94809.34;;;19.25;86.79
45941;BME280;31858;46.008;8.978;2022-10-03T11:49:52;94799.81;;;19.36;85.95
45941;BME280;31858;46.008;8.978;2022-10-03T12:00:04;94805.91;;;19.40;72.98
45941;BME280;31858;46.008;8.978;2022-10-03T12:10:19;94800.41;;;19.60;82.54
45941;BME280;31858;46.008;8.978;2022-10-03T12:20:34;94800.16;;;19.87;100.00
45941;BME280;31858;46.008;8.978;2022-10-03T12:30:47;94787.88;;;19.99;88.33
45941;BME280;31858;46.008;8.978;2022-10-03T12:40:58;94786.94;;;20.05;99.89
45941;BME280;31858;46.008;8.978;2022-10-03T12:51:12;94786.53;;;20.36;100.00
45941;BME280;31858;46.008;8.978;2022-10-03T13:01:25;94774.53;;;20.37;100.00
45941;BME280;31858;46.008;8.978;2022-10-03T13:11:32;94776.75;;;20.26;100.00
45941;BME280;31858;46.008;8.978;2022-10-03T13:21:53;94766.78;;;20.23;95.66
45941;BME280;31858;46.008;8.978;2022-10-03T13:32:15;94782.22;;;20.67;100.00
45941;BME280;31858;46.008;8.978;2022-10-03T13:42:28;94772.38;;;20.86;96.54
45941;BME280;31858;46.008;8.978;2022-10-03T13:52:36;94767.94;;;20.92;88.57
45941;BME280;31858;46.008;8.978;2022-10-03T14:02:58;94760.91;;;21.07;82.58
45941;BME280;31858;46.008;8.978;2022-10-03T14:13:13;94748.44;;;21.10;87.80
45941;BME280;31858;46.008;8.978;2022-10-03T14:23:23;94756.47;;;21.13;86.36
45941;BME280;31858;46.008;8.978;2022-10-03T14:33:35;94755.06;;;21.22;90.61
45941;BME280;31858;46.008;8.978;2022-10-03T14:43:44;94758.19;;;21.20;83.34
45941;BME280;31858;46.008;8.978;2022-10-03T14:53:52;94748.22;;;21.17;85.57
45941;BME280;31858;46.008;8.978;2022-10-03T15:04:00;94744.00;;;21.16;89.95
45941;BME280;31858;46.008;8.978;2022-10-03T15:14:04;94742.91;;;21.13;80.95
45941;BME280;31858;46.008;8.978;2022-10-03T15:24:08;94743.44;;;21.08;78.54
45941;BME280;31858;46.008;8.978;2022-10-03T15:34:16;94750.59;;;21.15;78.40
45941;BME280;31858;46.008;8.978;2022-10-03T15:44:23;94747.34;;;21.20;79.30
45941;BME280;31858;46.008;8.978;2022-10-03T15:54:29;94745.66;;;21.26;79.24
45941;BME280;31858;46.008;8.978;2022-10-03T16:04:37;94756.06;;;21.28;79.68
45941;BME280;31858;46.008;8.978;2022-10-03T16:14:42;94750.63;;;21.28;78.31
45941;BME280;31858;46.008;8.978;2022-10-03T16:24:57;94746.50;;;21.23;74.44
45941;BME280;31858;46.008;8.978;2022-10-03T16:35:13;94748.31;;;21.13;73.87
45941;BME280;31858;46.008;8.978;2022-10-03T16:45:28;94758.06;;;20.98;73.87
45941;BME280;31858;46.008;8.978;2022-10-03T16:55:33;94764.66;;;20.59;77.83
45941;BME280;31858;46.008;8.978;2022-10-03T17:05:42;94766.06;;;20.35;91.27
45941;BME280;31858;46.008;8.978;2022-10-03T17:15:50;94769.31;;;19.84;100.00
45941;BME280;31858;46.008;8.978;2022-10-03T17:26:02;94778.19;;;19.52;100.00
45941;BME280;31858;46.008;8.978;2022-10-03T17:36:33;94778.84;;;19.24;100.00
45941;BME280;31858;46.008;8.978;2022-10-03T17:46:44;94792.72;;;18.90;100.00
45941;BME280;31858;46.008;8.978;2022-10-03T17:56:53;94802.78;;;18.70;100.00
45941;BME280;31858;46.008;8.978;2022-10-03T18:07:01;94818.25;;;18.46;100.00
45941;BME280;31858;46.008;8.978;2022-10-03T18:17:11;94825.63;;;18.22;100.00
45941;BME280;31858;46.008;8.978;2022-10-03T18:27:43;94819.47;;;18.21;100.00
45941;BME280;31858;46.008;8.978;2022-10-03T18:37:54;94825.78;;;17.91;100.00
45941;BME280;31858;46.008;8.978;2022-10-03T18:48:06;94841.31;;;17.84;100.00
45941;BME280;31858;46.008;8.978;2022-10-03T18:58:15;94851.81;;;17.78;100.00
45941;BME280;31858;46.008;8.978;2022-10-03T19:08:21;94852.75;;;17.68;100.00
45941;BME280;31858;46.008;8.978;2022-10-03T19:18:27;94864.91;;;17.49;100.00
45941;BME280;31858;46.008;8.978;2022-10-03T19:28:42;94870.16;;;17.33;100.00
45941;BME280;31858;46.008;8.978;2022-10-03T19:38:46;94879.31;;;17.39;100.00
45941;BME280;31858;46.008;8.978;2022-10-03T19:59:35;94900.38;;;17.17;100.00
45941;BME280;31858;46.008;8.978;2022-10-03T20:09:53;94910.13;;;17.04;100.00
45941;BME280;31858;46.008;8.978;2022-10-03T20:19:56;94913.47;;;16.85;100.00
45941;BME280;31858;46.008;8.978;2022-10-03T20:30:06;94924.38;;;16.71;100.00
45941;BME280;31858;46.008;8.978;2022-10-03T20:40:24;94930.56;;;16.64;100.00
45941;BME280;31858;46.008;8.978;2022-10-03T20:50:33;94934.94;;;16.51;100.00
45941;BME280;31858;46.008;8.978;2022-10-03T21:00:42;94949.00;;;16.24;100.00
45941;BME280;31858;46.008;8.978;2022-10-03T21:10:49;94956.31;;;16.20;100.00
45941;BME280;31858;46.008;8.978;2022-10-03T21:21:02;94969.84;;;16.10;100.00
45941;BME280;31858;46.008;8.978;2022-10-03T21:31:27;94969.13;;;16.02;100.00
45941;BME280;31858;46.008;8.978;2022-10-03T21:41:39;94960.75;;;15.93;100.00
45941;BME280;31858;46.008;8.978;2022-10-03T21:52:04;94956.25;;;15.79;100.00
45941;BME280;31858;46.008;8.978;2022-10-03T22:02:16;94976.25;;;15.68;100.00
45941;BME280;31858;46.008;8.978;2022-10-03T22:12:21;94982.09;;;15.55;100.00
45941;BME280;31858;46.008;8.978;2022-10-03T22:22:36;94983.63;;;15.56;100.00
45941;BME280;31858;46.008;8.978;2022-10-03T22:32:49;94987.09;;;15.53;100.00
45941;BME280;31858;46.008;8.978;2022-10-03T22:42:54;94981.75;;;15.46;100.00
45941;BME280;31858;46.008;8.978;2022-10-03T22:52:58;94981.00;;;15.42;100.00
45941;BME280;31858;46.008;8.978;2022-10-03T23:03:05;94976.44;;;15.32;100.00
45941;BME280;31858;46.008;8.978;2022-10-03T23:13:15;94984.19;;;15.12;100.00
45941;BME280;31858;46.008;8.978;2022-10-03T23:23:21;94979.56;;;15.16;100.00
45941;BME280;31858;46.008;8.978;2022-10-03T23:33:49;94979.53;;;15.23;100.00
45941;BME280;31858;46.008;8.978;2022-10-03T23:43:54;94986.50;;;15.07;100.00
45941;BME280;31858;46.008;8.978;2022-10-03T23:53:58;94991.88;;;15.07;100.00
